sensor_id;sensor_type;location;lat;lon;timestamp;P1;durP1;ratioP1;P2;durP2;ratioP2
55497;SDS011;41357;52.806;18.268;2023-05-24T00:00:49;14.68;;;8.48;;
55497;SDS011;41357;52.806;18.268;2023-05-24T00:03:17;13.43;;;9.05;;
55497;SDS011;41357;52.806;18.268;2023-05-24T00:05:45;14.98;;;9.68;;
55497;SDS011;41357;52.806;18.268;2023-05-24T00:08:11;12.13;;;9.07;;
55497;SDS011;41357;52.806;18.268;2023-05-24T00:10:40;15.45;;;9.63;;
55497;SDS011;41357;52.806;18.268;2023-05-24T00:13:06;17.13;;;8.95;;
55497;SDS011;41357;52.806;18.268;2023-05-24T00:15:32;18.02;;;10.07;;
55497;SDS011;41357;52.806;18.268;2023-05-24T00:17:58;25.05;;;9.43;;
55497;SDS011;41357;52.806;18.268;2023-05-24T00:20:24;16.75;;;9.35;;
55497;SDS011;41357;52.806;18.268;2023-05-24T00:22:51;24.88;;;9.45;;
55497;SDS011;41357;52.806;18.268;2023-05-24T00:25:17;17.70;;;9.10;;
55497;SDS011;41357;52.806;18.268;2023-05-24T00:27:43;14.00;;;9.02;;
55497;SDS011;41357;52.806;18.268;2023-05-24T00:30:09;20.55;;;9.55;;
55497;SDS011;41357;52.806;18.268;2023-05-24T00:32:35;22.50;;;9.32;;
55497;SDS011;41357;52.806;18.268;2023-05-24T00:35:01;13.82;;;9.60;;
55497;SDS011;41357;52.806;18.268;2023-05-24T00:37:27;23.00;;;10.13;;
55497;SDS011;41357;52.806;18.268;2023-05-24T00:39:54;16.48;;;10.00;;
55497;SDS011;41357;52.806;18.268;2023-05-24T00:42:20;21.50;;;9.48;;
55497;SDS011;41357;52.806;18.268;2023-05-24T00:44:46;20.65;;;9.15;;
55497;SDS011;41357;52.806;18.268;2023-05-24T00:47:12;23.13;;;9.70;;
55497;SDS011;41357;52.806;18.268;2023-05-24T00:49:38;26.30;;;8.98;;
55497;SDS011;41357;52.806;18.268;2023-05-24T00:52:04;21.35;;;10.52;;
55497;SDS011;41357;52.806;18.268;2023-05-24T00:54:32;20.90;;;9.50;;
55497;SDS011;41357;52.806;18.268;2023-05-24T00:56:59;18.08;;;9.07;;
55497;SDS011;41357;52.806;18.268;2023-05-24T00:59:25;19.75;;;9.13;;
55497;SDS011;41357;52.806;18.268;2023-05-24T01:01:52;17.75;;;8.68;;
55497;SDS011;41357;52.806;18.268;2023-05-24T01:04:19;20.15;;;8.70;;
55497;SDS011;41357;52.806;18.268;2023-05-24T01:14:30;15.20;;;9.75;;
55497;SDS011;41357;52.806;18.268;2023-05-24T01:19:46;16.83;;;9.93;;
55497;SDS011;41357;52.806;18.268;2023-05-24T01:22:27;20.27;;;9.07;;
55497;SDS011;41357;52.806;18.268;2023-05-24T01:25:06;16.83;;;9.20;;
55497;SDS011;41357;52.806;18.268;2023-05-24T01:27:34;16.25;;;9.02;;
55497;SDS011;41357;52.806;18.268;2023-05-24T01:30:01;13.55;;;9.45;;
55497;SDS011;41357;52.806;18.268;2023-05-24T01:32:28;13.57;;;9.40;;
55497;SDS011;41357;52.806;18.268;2023-05-24T01:34:55;13.05;;;9.38;;
55497;SDS011;41357;52.806;18.268;2023-05-24T01:37:21;13.65;;;9.05;;
55497;SDS011;41357;52.806;18.268;2023-05-24T01:39:47;12.63;;;9.32;;
55497;SDS011;41357;52.806;18.268;2023-05-24T01:42:29;17.15;;;9.00;;
55497;SDS011;41357;52.806;18.268;2023-05-24T01:48:13;12.20;;;9.32;;
55497;SDS011;41357;52.806;18.268;2023-05-24T01:50:16;13.52;;;9.32;;
55497;SDS011;41357;52.806;18.268;2023-05-24T01:52:43;12.35;;;8.68;;
55497;SDS011;41357;52.806;18.268;2023-05-24T01:55:10;12.55;;;9.27;;
55497;SDS011;41357;52.806;18.268;2023-05-24T01:57:38;12.52;;;9.38;;
55497;SDS011;41357;52.806;18.268;2023-05-24T02:00:05;17.33;;;9.35;;
55497;SDS011;41357;52.806;18.268;2023-05-24T02:02:32;12.35;;;8.90;;
55497;SDS011;41357;52.806;18.268;2023-05-24T02:04:58;12.50;;;9.30;;
55497;SDS011;41357;52.806;18.268;2023-05-24T02:07:24;13.15;;;9.05;;
55497;SDS011;41357;52.806;18.268;2023-05-24T02:09:50;15.60;;;9.18;;
55497;SDS011;41357;52.806;18.268;2023-05-24T02:12:16;12.10;;;8.70;;
55497;SDS011;41357;52.806;18.268;2023-05-24T02:14:43;14.00;;;9.10;;
55497;SDS011;41357;52.806;18.268;2023-05-24T02:17:09;11.88;;;8.55;;
55497;SDS011;41357;52.806;18.268;2023-05-24T02:19:35;13.13;;;9.30;;
55497;SDS011;41357;52.806;18.268;2023-05-24T02:22:01;17.30;;;8.13;;
55497;SDS011;41357;52.806;18.268;2023-05-24T02:24:28;14.05;;;8.32;;
55497;SDS011;41357;52.806;18.268;2023-05-24T02:26:54;10.68;;;7.68;;
55497;SDS011;41357;52.806;18.268;2023-05-24T02:29:20;13.25;;;7.85;;
55497;SDS011;41357;52.806;18.268;2023-05-24T02:31:47;9.93;;;7.72;;
55497;SDS011;41357;52.806;18.268;2023-05-24T02:34:18;13.82;;;8.20;;
55497;SDS011;41357;52.806;18.268;2023-05-24T02:36:45;13.40;;;8.68;;
55497;SDS011;41357;52.806;18.268;2023-05-24T02:39:11;12.40;;;8.02;;
55497;SDS011;41357;52.806;18.268;2023-05-24T02:41:37;11.65;;;7.65;;
55497;SDS011;41357;52.806;18.268;2023-05-24T02:44:03;12.82;;;8.60;;
55497;SDS011;41357;52.806;18.268;2023-05-24T02:46:29;14.13;;;8.68;;
55497;SDS011;41357;52.806;18.268;2023-05-24T02:48:55;13.93;;;9.20;;
55497;SDS011;41357;52.806;18.268;2023-05-24T02:51:21;13.27;;;8.00;;
55497;SDS011;41357;52.806;18.268;2023-05-24T02:53:47;14.25;;;7.50;;
55497;SDS011;41357;52.806;18.268;2023-05-24T02:56:13;13.00;;;7.93;;
55497;SDS011;41357;52.806;18.268;2023-05-24T02:58:41;10.30;;;8.13;;
55497;SDS011;41357;52.806;18.268;2023-05-24T03:01:09;13.90;;;8.25;;
55497;SDS011;41357;52.806;18.268;2023-05-24T03:03:36;13.60;;;8.93;;
55497;SDS011;41357;52.806;18.268;2023-05-24T03:06:03;12.40;;;9.10;;
55497;SDS011;41357;52.806;18.268;2023-05-24T03:08:31;12.80;;;8.63;;
55497;SDS011;41357;52.806;18.268;2023-05-24T03:10:57;13.55;;;8.35;;
55497;SDS011;41357;52.806;18.268;2023-05-24T03:13:23;15.45;;;8.52;;
55497;SDS011;41357;52.806;18.268;2023-05-24T03:15:49;14.73;;;8.82;;
55497;SDS011;41357;52.806;18.268;2023-05-24T03:18:15;11.80;;;8.63;;
55497;SDS011;41357;52.806;18.268;2023-05-24T03:20:41;17.00;;;9.05;;
55497;SDS011;41357;52.806;18.268;2023-05-24T03:23:07;11.18;;;8.63;;
55497;SDS011;41357;52.806;18.268;2023-05-24T03:25:34;14.80;;;8.77;;
55497;SDS011;41357;52.806;18.268;2023-05-24T03:28:00;12.95;;;8.35;;
55497;SDS011;41357;52.806;18.268;2023-05-24T03:30:26;15.55;;;9.80;;
55497;SDS011;41357;52.806;18.268;2023-05-24T03:32:52;12.23;;;8.70;;
55497;SDS011;41357;52.806;18.268;2023-05-24T03:35:19;11.90;;;8.63;;
55497;SDS011;41357;52.806;18.268;2023-05-24T03:37:45;10.85;;;8.10;;
55497;SDS011;41357;52.806;18.268;2023-05-24T03:40:11;11.43;;;7.65;;
55497;SDS011;41357;52.806;18.268;2023-05-24T03:42:37;9.55;;;7.80;;
55497;SDS011;41357;52.806;18.268;2023-05-24T03:45:04;12.82;;;8.23;;
55497;SDS011;41357;52.806;18.268;2023-05-24T03:47:30;17.30;;;7.93;;
55497;SDS011;41357;52.806;18.268;2023-05-24T03:49:56;10.07;;;7.72;;
55497;SDS011;41357;52.806;18.268;2023-05-24T03:52:22;13.50;;;8.00;;
55497;SDS011;41357;52.806;18.268;2023-05-24T03:54:48;10.73;;;7.72;;
55497;SDS011;41357;52.806;18.268;2023-05-24T03:57:14;11.05;;;8.60;;
55497;SDS011;41357;52.806;18.268;2023-05-24T03:59:40;12.25;;;7.70;;
55497;SDS011;41357;52.806;18.268;2023-05-24T04:02:06;12.02;;;8.77;;
55497;SDS011;41357;52.806;18.268;2023-05-24T04:04:33;14.35;;;8.48;;
55497;SDS011;41357;52.806;18.268;2023-05-24T04:06:59;11.82;;;8.55;;
55497;SDS011;41357;52.806;18.268;2023-05-24T04:09:25;11.98;;;8.50;;
55497;SDS011;41357;52.806;18.268;2023-05-24T04:11:51;11.27;;;8.43;;
55497;SDS011;41357;52.806;18.268;2023-05-24T04:14:17;13.23;;;8.13;;
55497;SDS011;41357;52.806;18.268;2023-05-24T04:16:43;14.70;;;8.70;;
55497;SDS011;41357;52.806;18.268;2023-05-24T04:19:09;12.73;;;8.80;;
55497;SDS011;41357;52.806;18.268;2023-05-24T04:21:36;13.32;;;10.00;;
55497;SDS011;41357;52.806;18.268;2023-05-24T04:24:04;15.85;;;9.85;;
55497;SDS011;41357;52.806;18.268;2023-05-24T04:26:31;12.55;;;9.30;;
55497;SDS011;41357;52.806;18.268;2023-05-24T04:28:58;16.30;;;10.00;;
55497;SDS011;41357;52.806;18.268;2023-05-24T04:31:24;17.65;;;11.68;;
55497;SDS011;41357;52.806;18.268;2023-05-24T04:33:53;19.73;;;11.57;;
55497;SDS011;41357;52.806;18.268;2023-05-24T04:36:19;19.30;;;11.73;;
55497;SDS011;41357;52.806;18.268;2023-05-24T04:38:47;16.52;;;11.82;;
55497;SDS011;41357;52.806;18.268;2023-05-24T04:41:14;19.02;;;11.98;;
55497;SDS011;41357;52.806;18.268;2023-05-24T04:43:40;22.38;;;12.70;;
55497;SDS011;41357;52.806;18.268;2023-05-24T04:46:06;19.08;;;11.73;;
55497;SDS011;41357;52.806;18.268;2023-05-24T04:48:32;16.13;;;12.25;;
55497;SDS011;41357;52.806;18.268;2023-05-24T04:50:58;20.35;;;12.77;;
55497;SDS011;41357;52.806;18.268;2023-05-24T04:53:24;17.52;;;13.32;;
55497;SDS011;41357;52.806;18.268;2023-05-24T04:55:50;21.90;;;12.73;;
55497;SDS011;41357;52.806;18.268;2023-05-24T04:58:17;19.52;;;13.07;;
55497;SDS011;41357;52.806;18.268;2023-05-24T05:00:43;17.90;;;12.63;;
55497;SDS011;41357;52.806;18.268;2023-05-24T05:03:09;17.75;;;13.65;;
55497;SDS011;41357;52.806;18.268;2023-05-24T05:05:36;22.05;;;14.40;;
55497;SDS011;41357;52.806;18.268;2023-05-24T05:08:02;23.23;;;13.35;;
55497;SDS011;41357;52.806;18.268;2023-05-24T05:10:28;19.55;;;13.50;;
55497;SDS011;41357;52.806;18.268;2023-05-24T05:12:54;25.08;;;13.20;;
55497;SDS011;41357;52.806;18.268;2023-05-24T05:15:21;26.52;;;14.80;;
55497;SDS011;41357;52.806;18.268;2023-05-24T05:17:48;26.17;;;14.00;;
55497;SDS011;41357;52.806;18.268;2023-05-24T05:20:14;23.05;;;14.48;;
55497;SDS011;41357;52.806;18.268;2023-05-24T05:22:44;21.15;;;13.50;;
55497;SDS011;41357;52.806;18.268;2023-05-24T05:25:11;20.92;;;13.05;;
55497;SDS011;41357;52.806;18.268;2023-05-24T05:27:37;23.88;;;13.00;;
55497;SDS011;41357;52.806;18.268;2023-05-24T05:30:03;19.92;;;12.77;;
55497;SDS011;41357;52.806;18.268;2023-05-24T05:32:29;25.38;;;13.68;;
55497;SDS011;41357;52.806;18.268;2023-05-24T05:34:55;22.08;;;13.55;;
55497;SDS011;41357;52.806;18.268;2023-05-24T05:37:21;21.45;;;12.45;;
55497;SDS011;41357;52.806;18.268;2023-05-24T05:39:47;24.33;;;13.93;;
55497;SDS011;41357;52.806;18.268;2023-05-24T05:42:13;22.17;;;13.50;;
55497;SDS011;41357;52.806;18.268;2023-05-24T05:44:39;19.42;;;12.63;;
55497;SDS011;41357;52.806;18.268;2023-05-24T05:47:06;24.63;;;13.00;;
55497;SDS011;41357;52.806;18.268;2023-05-24T05:49:33;22.45;;;12.70;;
55497;SDS011;41357;52.806;18.268;2023-05-24T05:52:05;18.70;;;12.82;;
55497;SDS011;41357;52.806;18.268;2023-05-24T05:54:31;19.92;;;13.52;;
55497;SDS011;41357;52.806;18.268;2023-05-24T05:56:58;21.27;;;13.88;;
55497;SDS011;41357;52.806;18.268;2023-05-24T05:59:24;20.10;;;13.73;;
55497;SDS011;41357;52.806;18.268;2023-05-24T06:01:51;17.77;;;13.43;;
55497;SDS011;41357;52.806;18.268;2023-05-24T06:04:17;16.70;;;11.90;;
55497;SDS011;41357;52.806;18.268;2023-05-24T06:06:43;16.27;;;10.85;;
55497;SDS011;41357;52.806;18.268;2023-05-24T06:09:13;17.92;;;11.85;;
55497;SDS011;41357;52.806;18.268;2023-05-24T06:11:39;16.92;;;11.85;;
55497;SDS011;41357;52.806;18.268;2023-05-24T06:14:08;22.20;;;12.30;;
55497;SDS011;41357;52.806;18.268;2023-05-24T06:16:36;20.63;;;13.00;;
55497;SDS011;41357;52.806;18.268;2023-05-24T06:19:06;20.38;;;11.55;;
55497;SDS011;41357;52.806;18.268;2023-05-24T06:21:32;17.33;;;11.45;;
55497;SDS011;41357;52.806;18.268;2023-05-24T06:24:00;19.50;;;12.00;;
55497;SDS011;41357;52.806;18.268;2023-05-24T06:26:26;17.48;;;10.98;;
55497;SDS011;41357;52.806;18.268;2023-05-24T06:28:53;19.42;;;11.32;;
55497;SDS011;41357;52.806;18.268;2023-05-24T06:31:19;20.33;;;12.70;;
55497;SDS011;41357;52.806;18.268;2023-05-24T06:33:46;15.25;;;10.40;;
55497;SDS011;41357;52.806;18.268;2023-05-24T06:36:12;17.40;;;11.10;;
55497;SDS011;41357;52.806;18.268;2023-05-24T06:38:38;15.27;;;10.60;;
55497;SDS011;41357;52.806;18.268;2023-05-24T06:41:04;16.75;;;10.75;;
55497;SDS011;41357;52.806;18.268;2023-05-24T06:43:30;16.50;;;10.82;;
55497;SDS011;41357;52.806;18.268;2023-05-24T06:45:57;18.20;;;12.20;;
55497;SDS011;41357;52.806;18.268;2023-05-24T06:48:23;21.88;;;11.50;;
55497;SDS011;41357;52.806;18.268;2023-05-24T06:50:50;17.33;;;11.20;;
55497;SDS011;41357;52.806;18.268;2023-05-24T06:53:16;14.52;;;10.00;;
55497;SDS011;41357;52.806;18.268;2023-05-24T06:55:42;15.38;;;10.68;;
55497;SDS011;41357;52.806;18.268;2023-05-24T06:58:08;16.20;;;10.70;;
55497;SDS011;41357;52.806;18.268;2023-05-24T07:00:38;17.00;;;9.88;;
55497;SDS011;41357;52.806;18.268;2023-05-24T07:03:05;14.50;;;9.65;;
55497;SDS011;41357;52.806;18.268;2023-05-24T07:05:32;13.77;;;10.23;;
55497;SDS011;41357;52.806;18.268;2023-05-24T07:07:58;16.92;;;9.60;;
55497;SDS011;41357;52.806;18.268;2023-05-24T07:10:24;13.57;;;8.70;;
55497;SDS011;41357;52.806;18.268;2023-05-24T07:12:50;14.38;;;9.75;;
55497;SDS011;41357;52.806;18.268;2023-05-24T07:15:16;17.48;;;10.00;;
55497;SDS011;41357;52.806;18.268;2023-05-24T07:17:42;13.43;;;9.55;;
55497;SDS011;41357;52.806;18.268;2023-05-24T07:20:09;13.82;;;9.35;;
55497;SDS011;41357;52.806;18.268;2023-05-24T07:22:35;14.15;;;9.57;;
55497;SDS011;41357;52.806;18.268;2023-05-24T07:25:01;13.13;;;8.98;;
55497;SDS011;41357;52.806;18.268;2023-05-24T07:27:28;12.85;;;9.38;;
55497;SDS011;41357;52.806;18.268;2023-05-24T07:29:54;12.80;;;8.35;;
55497;SDS011;41357;52.806;18.268;2023-05-24T07:32:21;14.88;;;9.30;;
55497;SDS011;41357;52.806;18.268;2023-05-24T07:34:47;15.95;;;9.32;;
55497;SDS011;41357;52.806;18.268;2023-05-24T07:37:14;11.60;;;8.93;;
55497;SDS011;41357;52.806;18.268;2023-05-24T07:39:41;15.50;;;9.85;;
55497;SDS011;41357;52.806;18.268;2023-05-24T07:42:07;14.25;;;8.02;;
55497;SDS011;41357;52.806;18.268;2023-05-24T07:44:34;15.00;;;8.45;;
55497;SDS011;41357;52.806;18.268;2023-05-24T07:47:00;12.48;;;9.23;;
55497;SDS011;41357;52.806;18.268;2023-05-24T07:49:28;12.35;;;8.15;;
55497;SDS011;41357;52.806;18.268;2023-05-24T07:51:55;13.05;;;8.32;;
55497;SDS011;41357;52.806;18.268;2023-05-24T07:54:23;10.75;;;8.35;;
55497;SDS011;41357;52.806;18.268;2023-05-24T07:56:50;13.60;;;8.80;;
55497;SDS011;41357;52.806;18.268;2023-05-24T07:59:16;10.88;;;8.63;;
55497;SDS011;41357;52.806;18.268;2023-05-24T08:01:43;10.43;;;7.75;;
55497;SDS011;41357;52.806;18.268;2023-05-24T08:04:09;15.63;;;8.15;;
55497;SDS011;41357;52.806;18.268;2023-05-24T08:06:35;13.10;;;8.02;;
55497;SDS011;41357;52.806;18.268;2023-05-24T08:09:02;9.85;;;7.65;;
55497;SDS011;41357;52.806;18.268;2023-05-24T08:11:29;11.82;;;8.55;;
55497;SDS011;41357;52.806;18.268;2023-05-24T08:13:55;10.90;;;8.07;;
55497;SDS011;41357;52.806;18.268;2023-05-24T08:16:21;10.82;;;7.60;;
55497;SDS011;41357;52.806;18.268;2023-05-24T08:18:47;12.00;;;7.85;;
55497;SDS011;41357;52.806;18.268;2023-05-24T08:21:13;10.73;;;8.25;;
55497;SDS011;41357;52.806;18.268;2023-05-24T08:23:40;10.23;;;7.78;;
55497;SDS011;41357;52.806;18.268;2023-05-24T08:26:06;11.80;;;7.28;;
55497;SDS011;41357;52.806;18.268;2023-05-24T08:28:33;11.52;;;7.90;;
55497;SDS011;41357;52.806;18.268;2023-05-24T08:30:59;10.77;;;7.22;;
55497;SDS011;41357;52.806;18.268;2023-05-24T08:33:25;11.00;;;7.63;;
55497;SDS011;41357;52.806;18.268;2023-05-24T08:35:53;13.63;;;8.43;;
55497;SDS011;41357;52.806;18.268;2023-05-24T08:38:19;10.57;;;8.25;;
55497;SDS011;41357;52.806;18.268;2023-05-24T08:40:46;10.60;;;7.63;;
55497;SDS011;41357;52.806;18.268;2023-05-24T08:43:12;12.93;;;8.88;;
55497;SDS011;41357;52.806;18.268;2023-05-24T08:45:39;9.13;;;8.07;;
55497;SDS011;41357;52.806;18.268;2023-05-24T08:48:05;12.82;;;8.80;;
55497;SDS011;41357;52.806;18.268;2023-05-24T08:50:32;12.45;;;8.27;;
55497;SDS011;41357;52.806;18.268;2023-05-24T08:52:58;9.73;;;7.60;;
55497;SDS011;41357;52.806;18.268;2023-05-24T08:55:28;10.65;;;7.78;;
55497;SDS011;41357;52.806;18.268;2023-05-24T08:57:55;10.98;;;7.47;;
55497;SDS011;41357;52.806;18.268;2023-05-24T09:00:21;10.50;;;7.45;;
55497;SDS011;41357;52.806;18.268;2023-05-24T09:02:48;17.42;;;7.47;;
55497;SDS011;41357;52.806;18.268;2023-05-24T09:05:15;13.43;;;7.55;;
55497;SDS011;41357;52.806;18.268;2023-05-24T09:07:45;11.15;;;7.70;;
55497;SDS011;41357;52.806;18.268;2023-05-24T09:10:12;12.50;;;8.20;;
55497;SDS011;41357;52.806;18.268;2023-05-24T09:12:39;13.40;;;8.05;;
55497;SDS011;41357;52.806;18.268;2023-05-24T09:15:08;9.48;;;7.10;;
55497;SDS011;41357;52.806;18.268;2023-05-24T09:17:35;12.48;;;7.30;;
55497;SDS011;41357;52.806;18.268;2023-05-24T09:20:01;12.63;;;7.72;;
55497;SDS011;41357;52.806;18.268;2023-05-24T09:22:30;9.77;;;7.72;;
55497;SDS011;41357;52.806;18.268;2023-05-24T09:25:00;7.60;;;6.57;;
55497;SDS011;41357;52.806;18.268;2023-05-24T09:27:26;12.10;;;7.60;;
55497;SDS011;41357;52.806;18.268;2023-05-24T09:29:53;13.13;;;7.55;;
55497;SDS011;41357;52.806;18.268;2023-05-24T09:32:20;13.05;;;7.03;;
55497;SDS011;41357;52.806;18.268;2023-05-24T09:34:49;9.43;;;7.00;;
55497;SDS011;41357;52.806;18.268;2023-05-24T09:37:17;7.35;;;5.60;;
55497;SDS011;41357;52.806;18.268;2023-05-24T09:39:43;7.90;;;6.63;;
55497;SDS011;41357;52.806;18.268;2023-05-24T09:42:18;7.72;;;6.30;;
55497;SDS011;41357;52.806;18.268;2023-05-24T09:45:09;11.55;;;6.03;;
55497;SDS011;41357;52.806;18.268;2023-05-24T09:47:36;7.32;;;6.10;;
55497;SDS011;41357;52.806;18.268;2023-05-24T09:50:03;10.30;;;6.55;;
55497;SDS011;41357;52.806;18.268;2023-05-24T09:52:30;11.40;;;6.97;;
55497;SDS011;41357;52.806;18.268;2023-05-24T09:54:57;9.32;;;6.57;;
55497;SDS011;41357;52.806;18.268;2023-05-24T09:57:23;10.68;;;7.05;;
55497;SDS011;41357;52.806;18.268;2023-05-24T09:59:50;9.60;;;7.30;;
55497;SDS011;41357;52.806;18.268;2023-05-24T10:02:19;8.18;;;6.95;;
55497;SDS011;41357;52.806;18.268;2023-05-24T10:04:47;9.27;;;6.97;;
55497;SDS011;41357;52.806;18.268;2023-05-24T10:07:13;12.90;;;7.05;;
55497;SDS011;41357;52.806;18.268;2023-05-24T10:09:40;6.78;;;6.07;;
55497;SDS011;41357;52.806;18.268;2023-05-24T10:12:07;8.25;;;6.80;;
55497;SDS011;41357;52.806;18.268;2023-05-24T10:14:34;6.57;;;5.80;;
55497;SDS011;41357;52.806;18.268;2023-05-24T10:17:04;8.75;;;6.63;;
55497;SDS011;41357;52.806;18.268;2023-05-24T10:19:31;8.02;;;6.90;;
55497;SDS011;41357;52.806;18.268;2023-05-24T10:21:57;8.73;;;6.65;;
55497;SDS011;41357;52.806;18.268;2023-05-24T10:24:25;10.63;;;6.60;;
55497;SDS011;41357;52.806;18.268;2023-05-24T10:26:53;9.55;;;7.63;;
55497;SDS011;41357;52.806;18.268;2023-05-24T10:29:28;9.85;;;7.07;;
55497;SDS011;41357;52.806;18.268;2023-05-24T10:31:58;7.72;;;6.45;;
55497;SDS011;41357;52.806;18.268;2023-05-24T10:34:24;10.60;;;6.47;;
55497;SDS011;41357;52.806;18.268;2023-05-24T10:36:51;7.85;;;6.60;;
55497;SDS011;41357;52.806;18.268;2023-05-24T10:39:19;9.27;;;6.05;;
55497;SDS011;41357;52.806;18.268;2023-05-24T10:41:46;9.57;;;7.05;;
55497;SDS011;41357;52.806;18.268;2023-05-24T10:44:12;7.80;;;6.47;;
55497;SDS011;41357;52.806;18.268;2023-05-24T10:49:23;8.95;;;7.35;;
55497;SDS011;41357;52.806;18.268;2023-05-24T10:51:50;8.07;;;6.68;;
55497;SDS011;41357;52.806;18.268;2023-05-24T10:54:25;10.60;;;6.55;;
55497;SDS011;41357;52.806;18.268;2023-05-24T10:56:51;8.30;;;6.32;;
55497;SDS011;41357;52.806;18.268;2023-05-24T10:59:21;8.48;;;6.00;;
55497;SDS011;41357;52.806;18.268;2023-05-24T11:01:53;9.48;;;6.00;;
55497;SDS011;41357;52.806;18.268;2023-05-24T11:04:19;7.30;;;6.30;;
55497;SDS011;41357;52.806;18.268;2023-05-24T11:07:04;7.72;;;6.03;;
55497;SDS011;41357;52.806;18.268;2023-05-24T11:09:33;8.95;;;6.93;;
55497;SDS011;41357;52.806;18.268;2023-05-24T11:12:03;8.18;;;5.80;;
55497;SDS011;41357;52.806;18.268;2023-05-24T11:14:33;8.45;;;6.20;;
55497;SDS011;41357;52.806;18.268;2023-05-24T11:16:59;9.13;;;6.20;;
55497;SDS011;41357;52.806;18.268;2023-05-24T11:19:44;8.25;;;6.72;;
55497;SDS011;41357;52.806;18.268;2023-05-24T11:22:11;10.02;;;6.10;;
55497;SDS011;41357;52.806;18.268;2023-05-24T11:24:39;7.20;;;5.57;;
55497;SDS011;41357;52.806;18.268;2023-05-24T11:27:06;9.25;;;5.50;;
55497;SDS011;41357;52.806;18.268;2023-05-24T11:29:38;7.35;;;6.05;;
55497;SDS011;41357;52.806;18.268;2023-05-24T11:32:04;7.60;;;5.82;;
55497;SDS011;41357;52.806;18.268;2023-05-24T11:34:31;11.65;;;5.93;;
55497;SDS011;41357;52.806;18.268;2023-05-24T11:36:58;6.93;;;6.22;;
55497;SDS011;41357;52.806;18.268;2023-05-24T11:39:28;9.68;;;6.35;;
55497;SDS011;41357;52.806;18.268;2023-05-24T11:41:55;8.07;;;6.18;;
55497;SDS011;41357;52.806;18.268;2023-05-24T11:44:21;6.53;;;5.53;;
55497;SDS011;41357;52.806;18.268;2023-05-24T11:46:47;8.65;;;4.88;;
55497;SDS011;41357;52.806;18.268;2023-05-24T11:49:14;8.27;;;6.25;;
55497;SDS011;41357;52.806;18.268;2023-05-24T11:51:40;15.07;;;6.20;;
55497;SDS011;41357;52.806;18.268;2023-05-24T11:54:07;11.45;;;7.10;;
55497;SDS011;41357;52.806;18.268;2023-05-24T11:56:33;11.63;;;8.48;;
55497;SDS011;41357;52.806;18.268;2023-05-24T11:59:08;10.43;;;7.07;;
55497;SDS011;41357;52.806;18.268;2023-05-24T12:01:34;11.23;;;8.48;;
55497;SDS011;41357;52.806;18.268;2023-05-24T12:04:02;10.63;;;7.47;;
55497;SDS011;41357;52.806;18.268;2023-05-24T12:06:33;8.07;;;6.53;;
55497;SDS011;41357;52.806;18.268;2023-05-24T12:08:59;8.77;;;6.03;;
55497;SDS011;41357;52.806;18.268;2023-05-24T12:11:26;8.52;;;5.78;;
55497;SDS011;41357;52.806;18.268;2023-05-24T12:13:52;8.57;;;6.10;;
55497;SDS011;41357;52.806;18.268;2023-05-24T12:16:18;9.68;;;6.97;;
55497;SDS011;41357;52.806;18.268;2023-05-24T12:18:44;10.18;;;8.10;;
55497;SDS011;41357;52.806;18.268;2023-05-24T12:21:10;8.10;;;7.25;;
55497;SDS011;41357;52.806;18.268;2023-05-24T12:23:37;8.50;;;5.70;;
55497;SDS011;41357;52.806;18.268;2023-05-24T12:26:03;7.65;;;6.65;;
55497;SDS011;41357;52.806;18.268;2023-05-24T12:28:33;9.27;;;6.07;;
55497;SDS011;41357;52.806;18.268;2023-05-24T12:31:00;9.13;;;5.50;;
55497;SDS011;41357;52.806;18.268;2023-05-24T12:33:26;11.25;;;6.60;;
55497;SDS011;41357;52.806;18.268;2023-05-24T12:35:53;7.88;;;6.25;;
55497;SDS011;41357;52.806;18.268;2023-05-24T12:38:20;13.73;;;6.03;;
55497;SDS011;41357;52.806;18.268;2023-05-24T12:40:50;10.70;;;5.53;;
55497;SDS011;41357;52.806;18.268;2023-05-24T12:43:17;7.28;;;6.35;;
55497;SDS011;41357;52.806;18.268;2023-05-24T12:45:44;8.13;;;5.80;;
55497;SDS011;41357;52.806;18.268;2023-05-24T12:48:10;7.63;;;5.78;;
55497;SDS011;41357;52.806;18.268;2023-05-24T12:50:37;8.88;;;6.25;;
55497;SDS011;41357;52.806;18.268;2023-05-24T12:53:03;8.20;;;5.90;;
55497;SDS011;41357;52.806;18.268;2023-05-24T12:55:29;6.28;;;5.25;;
55497;SDS011;41357;52.806;18.268;2023-05-24T12:57:56;7.85;;;5.82;;
55497;SDS011;41357;52.806;18.268;2023-05-24T13:00:26;8.45;;;6.57;;
55497;SDS011;41357;52.806;18.268;2023-05-24T13:02:53;7.25;;;6.15;;
55497;SDS011;41357;52.806;18.268;2023-05-24T13:05:20;11.27;;;6.63;;
55497;SDS011;41357;52.806;18.268;2023-05-24T13:07:48;8.30;;;6.63;;
55497;SDS011;41357;52.806;18.268;2023-05-24T13:10:14;9.45;;;5.80;;
55497;SDS011;41357;52.806;18.268;2023-05-24T13:12:41;8.15;;;6.47;;
55497;SDS011;41357;52.806;18.268;2023-05-24T13:15:08;14.27;;;7.18;;
55497;SDS011;41357;52.806;18.268;2023-05-24T13:17:34;8.93;;;5.93;;
55497;SDS011;41357;52.806;18.268;2023-05-24T13:20:00;12.70;;;6.28;;
55497;SDS011;41357;52.806;18.268;2023-05-24T13:22:29;7.72;;;6.22;;
55497;SDS011;41357;52.806;18.268;2023-05-24T13:24:55;7.20;;;5.80;;
55497;SDS011;41357;52.806;18.268;2023-05-24T13:27:21;7.57;;;6.70;;
55497;SDS011;41357;52.806;18.268;2023-05-24T13:29:47;10.02;;;6.80;;
55497;SDS011;41357;52.806;18.268;2023-05-24T13:32:14;15.45;;;6.55;;
55497;SDS011;41357;52.806;18.268;2023-05-24T13:34:40;12.73;;;6.82;;
55497;SDS011;41357;52.806;18.268;2023-05-24T13:37:06;13.68;;;7.20;;
55497;SDS011;41357;52.806;18.268;2023-05-24T13:39:32;9.85;;;6.25;;
55497;SDS011;41357;52.806;18.268;2023-05-24T13:42:02;10.85;;;6.32;;
55497;SDS011;41357;52.806;18.268;2023-05-24T13:44:29;8.50;;;6.70;;
55497;SDS011;41357;52.806;18.268;2023-05-24T13:46:56;8.40;;;6.53;;
55497;SDS011;41357;52.806;18.268;2023-05-24T13:49:22;10.75;;;7.60;;
55497;SDS011;41357;52.806;18.268;2023-05-24T13:51:49;9.80;;;6.97;;
55497;SDS011;41357;52.806;18.268;2023-05-24T13:54:15;11.73;;;7.18;;
55497;SDS011;41357;52.806;18.268;2023-05-24T13:56:41;9.90;;;7.18;;
55497;SDS011;41357;52.806;18.268;2023-05-24T13:59:09;11.45;;;6.72;;
55497;SDS011;41357;52.806;18.268;2023-05-24T14:01:36;9.50;;;6.80;;
55497;SDS011;41357;52.806;18.268;2023-05-24T14:04:03;12.32;;;8.38;;
55497;SDS011;41357;52.806;18.268;2023-05-24T14:06:30;16.15;;;9.18;;
55497;SDS011;41357;52.806;18.268;2023-05-24T14:08:56;14.32;;;8.13;;
55497;SDS011;41357;52.806;18.268;2023-05-24T14:11:23;15.68;;;8.30;;
55497;SDS011;41357;52.806;18.268;2023-05-24T14:13:50;12.60;;;8.20;;
55497;SDS011;41357;52.806;18.268;2023-05-24T14:16:16;12.48;;;8.35;;
55497;SDS011;41357;52.806;18.268;2023-05-24T14:18:43;10.80;;;7.63;;
55497;SDS011;41357;52.806;18.268;2023-05-24T14:21:10;14.95;;;8.25;;
55497;SDS011;41357;52.806;18.268;2023-05-24T14:23:36;14.73;;;8.63;;
55497;SDS011;41357;52.806;18.268;2023-05-24T14:26:02;15.60;;;8.55;;
55497;SDS011;41357;52.806;18.268;2023-05-24T14:28:28;12.38;;;8.60;;
55497;SDS011;41357;52.806;18.268;2023-05-24T14:30:54;13.48;;;9.02;;
55497;SDS011;41357;52.806;18.268;2023-05-24T14:33:20;17.25;;;8.48;;
55497;SDS011;41357;52.806;18.268;2023-05-24T14:35:48;18.05;;;8.18;;